sensor_id;sensor_type;location;lat;lon;timestamp;temperature;humidity
2621;DHT22;1320;48.128;11.592;2023-07-22T00:00:44;18.30;99.90
2621;DHT22;1320;48.128;11.592;2023-07-22T00:03:09;18.20;99.90
2621;DHT22;1320;48.128;11.592;2023-07-22T00:05:35;18.20;99.90
2621;DHT22;1320;48.128;11.592;2023-07-22T00:08:01;18.20;99.90
2621;DHT22;1320;48.128;11.592;2023-07-22T00:10:26;18.20;99.90
2621;DHT22;1320;48.128;11.592;2023-07-22T00:12:52;18.20;99.90
2621;DHT22;1320;48.128;11.592;2023-07-22T00:15:18;18.10;99.90
2621;DHT22;1320;48.128;11.592;2023-07-22T00:17:45;18.10;99.90
2621;DHT22;1320;48.128;11.592;2023-07-22T00:20:11;18.10;99.90
2621;DHT22;1320;48.128;11.592;2023-07-22T00:22:40;18.10;99.90
2621;DHT22;1320;48.128;11.592;2023-07-22T00:25:07;18.00;99.90
2621;DHT22;1320;48.128;11.592;2023-07-22T00:27:41;18.00;99.90
2621;DHT22;1320;48.128;11.592;2023-07-22T00:30:08;18.10;99.90
2621;DHT22;1320;48.128;11.592;2023-07-22T00:32:34;18.00;99.90
2621;DHT22;1320;48.128;11.592;2023-07-22T00:35:06;18.00;99.90
2621;DHT22;1320;48.128;11.592;2023-07-22T00:37:32;18.00;99.90
2621;DHT22;1320;48.128;11.592;2023-07-22T00:39:58;18.00;99.90
2621;DHT22;1320;48.128;11.592;2023-07-22T00:42:24;18.00;99.90
2621;DHT22;1320;48.128;11.592;2023-07-22T00:44:50;17.90;99.90
2621;DHT22;1320;48.128;11.592;2023-07-22T00:47:16;17.90;99.90
2621;DHT22;1320;48.128;11.592;2023-07-22T00:49:43;17.90;99.90
2621;DHT22;1320;48.128;11.592;2023-07-22T00:52:09;17.90;99.90
2621;DHT22;1320;48.128;11.592;2023-07-22T00:54:35;17.90;99.90
2621;DHT22;1320;48.128;11.592;2023-07-22T00:57:01;17.80;99.90
2621;DHT22;1320;48.128;11.592;2023-07-22T00:59:27;17.80;99.90
2621;DHT22;1320;48.128;11.592;2023-07-22T01:01:53;17.80;99.90
2621;DHT22;1320;48.128;11.592;2023-07-22T01:04:20;17.80;99.90
2621;DHT22;1320;48.128;11.592;2023-07-22T01:06:48;17.80;99.90
2621;DHT22;1320;48.128;11.592;2023-07-22T01:09:15;17.80;99.90
2621;DHT22;1320;48.128;11.592;2023-07-22T01:11:40;17.70;99.90
2621;DHT22;1320;48.128;11.592;2023-07-22T01:14:06;17.70;99.90
2621;DHT22;1320;48.128;11.592;2023-07-22T01:16:33;17.70;99.90
2621;DHT22;1320;48.128;11.592;2023-07-22T01:18:59;17.70;99.90
2621;DHT22;1320;48.128;11.592;2023-07-22T01:21:27;17.60;99.90
2621;DHT22;1320;48.128;11.592;2023-07-22T01:23:53;17.60;99.90
2621;DHT22;1320;48.128;11.592;2023-07-22T01:26:19;17.60;99.90
2621;DHT22;1320;48.128;11.592;2023-07-22T01:28:45;17.60;99.90
2621;DHT22;1320;48.128;11.592;2023-07-22T01:31:11;17.60;99.90
2621;DHT22;1320;48.128;11.592;2023-07-22T01:33:37;17.60;99.90
2621;DHT22;1320;48.128;11.592;2023-07-22T01:36:03;17.60;99.90
2621;DHT22;1320;48.128;11.592;2023-07-22T01:38:29;17.50;99.90
2621;DHT22;1320;48.128;11.592;2023-07-22T01:40:56;17.40;99.90
2621;DHT22;1320;48.128;11.592;2023-07-22T01:43:22;17.30;99.90
2621;DHT22;1320;48.128;11.592;2023-07-22T01:45:48;17.30;99.90
2621;DHT22;1320;48.128;11.592;2023-07-22T01:48:13;17.20;99.90
2621;DHT22;1320;48.128;11.592;2023-07-22T01:50:39;17.20;99.90
2621;DHT22;1320;48.128;11.592;2023-07-22T01:53:05;17.10;99.90
2621;DHT22;1320;48.128;11.592;2023-07-22T01:55:31;17.10;99.90
2621;DHT22;1320;48.128;11.592;2023-07-22T01:58:00;17.10;99.90
2621;DHT22;1320;48.128;11.592;2023-07-22T02:00:26;17.10;99.90
2621;DHT22;1320;48.128;11.592;2023-07-22T02:02:52;17.10;99.90
2621;DHT22;1320;48.128;11.592;2023-07-22T02:05:18;17.10;99.90
2621;DHT22;1320;48.128;11.592;2023-07-22T02:07:43;17.20;99.90
2621;DHT22;1320;48.128;11.592;2023-07-22T02:10:09;17.20;99.90
2621;DHT22;1320;48.128;11.592;2023-07-22T02:12:35;17.30;99.90
2621;DHT22;1320;48.128;11.592;2023-07-22T02:15:01;17.30;99.90
2621;DHT22;1320;48.128;11.592;2023-07-22T02:17:28;17.30;99.90
2621;DHT22;1320;48.128;11.592;2023-07-22T02:19:54;17.30;99.90
2621;DHT22;1320;48.128;11.592;2023-07-22T02:22:20;17.30;99.90
2621;DHT22;1320;48.128;11.592;2023-07-22T02:24:45;17.30;99.90
2621;DHT22;1320;48.128;11.592;2023-07-22T02:27:11;17.30;99.90
2621;DHT22;1320;48.128;11.592;2023-07-22T02:29:40;17.30;99.90
2621;DHT22;1320;48.128;11.592;2023-07-22T02:32:06;17.30;99.90
2621;DHT22;1320;48.128;11.592;2023-07-22T02:34:31;17.40;99.90
2621;DHT22;1320;48.128;11.592;2023-07-22T02:36:57;17.40;99.90
2621;DHT22;1320;48.128;11.592;2023-07-22T02:39:23;17.40;99.90
2621;DHT22;1320;48.128;11.592;2023-07-22T02:41:48;17.40;99.90
2621;DHT22;1320;48.128;11.592;2023-07-22T02:44:14;17.40;99.90
2621;DHT22;1320;48.128;11.592;2023-07-22T02:46:40;17.30;99.90
2621;DHT22;1320;48.128;11.592;2023-07-22T02:49:06;17.30;99.90
2621;DHT22;1320;48.128;11.592;2023-07-22T02:51:32;17.30;99.90
2621;DHT22;1320;48.128;11.592;2023-07-22T02:53:57;17.20;99.90
2621;DHT22;1320;48.128;11.592;2023-07-22T02:56:23;17.20;99.90
2621;DHT22;1320;48.128;11.592;2023-07-22T02:58:49;17.10;99.90
2621;DHT22;1320;48.128;11.592;2023-07-22T03:01:15;17.10;99.90
2621;DHT22;1320;48.128;11.592;2023-07-22T03:03:41;17.10;99.90
2621;DHT22;1320;48.128;11.592;2023-07-22T03:06:06;17.10;99.90
2621;DHT22;1320;48.128;11.592;2023-07-22T03:08:34;17.10;99.90
2621;DHT22;1320;48.128;11.592;2023-07-22T03:11:00;17.10;99.90
2621;DHT22;1320;48.128;11.592;2023-07-22T03:13:26;17.10;99.90
2621;DHT22;1320;48.128;11.592;2023-07-22T03:15:55;17.20;99.90
2621;DHT22;1320;48.128;11.592;2023-07-22T03:18:21;17.20;99.90
2621;DHT22;1320;48.128;11.592;2023-07-22T03:20:47;17.20;99.90
2621;DHT22;1320;48.128;11.592;2023-07-22T03:23:12;17.20;99.90
2621;DHT22;1320;48.128;11.592;2023-07-22T03:25:38;17.20;99.90
2621;DHT22;1320;48.128;11.592;2023-07-22T03:28:05;17.20;99.90
2621;DHT22;1320;48.128;11.592;2023-07-22T03:30:31;17.20;99.90
2621;DHT22;1320;48.128;11.592;2023-07-22T03:32:57;17.20;99.90
2621;DHT22;1320;48.128;11.592;2023-07-22T03:35:23;17.10;99.90
2621;DHT22;1320;48.128;11.592;2023-07-22T03:37:49;17.10;99.90
2621;DHT22;1320;48.128;11.592;2023-07-22T03:40:14;17.00;99.90
2621;DHT22;1320;48.128;11.592;2023-07-22T03:42:46;17.10;99.90
2621;DHT22;1320;48.128;11.592;2023-07-22T03:45:11;17.00;99.90
2621;DHT22;1320;48.128;11.592;2023-07-22T03:47:38;17.00;99.90
2621;DHT22;1320;48.128;11.592;2023-07-22T03:50:05;17.00;99.90
2621;DHT22;1320;48.128;11.592;2023-07-22T03:52:31;17.00;99.90
2621;DHT22;1320;48.128;11.592;2023-07-22T03:54:57;17.00;99.90
2621;DHT22;1320;48.128;11.592;2023-07-22T03:57:26;17.00;99.90
2621;DHT22;1320;48.128;11.592;2023-07-22T03:59:53;17.10;99.90
2621;DHT22;1320;48.128;11.592;2023-07-22T04:02:19;17.10;99.90
2621;DHT22;1320;48.128;11.592;2023-07-22T04:04:44;17.10;99.90
2621;DHT22;1320;48.128;11.592;2023-07-22T04:07:10;17.20;99.90
2621;DHT22;1320;48.128;11.592;2023-07-22T04:09:36;17.20;99.90
2621;DHT22;1320;48.128;11.592;2023-07-22T04:12:01;17.30;99.90
2621;DHT22;1320;48.128;11.592;2023-07-22T04:14:27;17.20;99.90
2621;DHT22;1320;48.128;11.592;2023-07-22T04:16:53;17.20;99.90
2621;DHT22;1320;48.128;11.592;2023-07-22T04:19:18;17.30;99.90
2621;DHT22;1320;48.128;11.592;2023-07-22T04:21:44;17.30;99.90
2621;DHT22;1320;48.128;11.592;2023-07-22T04:24:10;17.30;99.90
2621;DHT22;1320;48.128;11.592;2023-07-22T04:26:36;17.30;99.90
2621;DHT22;1320;48.128;11.592;2023-07-22T04:29:01;17.40;99.90
2621;DHT22;1320;48.128;11.592;2023-07-22T04:31:27;17.40;99.90
2621;DHT22;1320;48.128;11.592;2023-07-22T04:33:53;17.40;99.90
2621;DHT22;1320;48.128;11.592;2023-07-22T04:36:18;17.40;99.90
2621;DHT22;1320;48.128;11.592;2023-07-22T04:38:44;17.40;99.90
2621;DHT22;1320;48.128;11.592;2023-07-22T04:41:10;17.50;99.90
2621;DHT22;1320;48.128;11.592;2023-07-22T04:43:35;17.50;99.90
2621;DHT22;1320;48.128;11.592;2023-07-22T04:46:01;17.60;99.90
2621;DHT22;1320;48.128;11.592;2023-07-22T04:48:26;17.60;99.90
2621;DHT22;1320;48.128;11.592;2023-07-22T04:50:52;17.70;99.90
2621;DHT22;1320;48.128;11.592;2023-07-22T04:53:18;17.80;99.90
2621;DHT22;1320;48.128;11.592;2023-07-22T04:55:44;17.80;99.90
2621;DHT22;1320;48.128;11.592;2023-07-22T04:58:10;17.90;99.90
2621;DHT22;1320;48.128;11.592;2023-07-22T05:00:38;17.90;99.90
2621;DHT22;1320;48.128;11.592;2023-07-22T05:03:04;17.90;99.90
2621;DHT22;1320;48.128;11.592;2023-07-22T05:05:31;18.00;99.90
2621;DHT22;1320;48.128;11.592;2023-07-22T05:07:56;18.00;99.90
2621;DHT22;1320;48.128;11.592;2023-07-22T05:10:22;18.00;99.90
2621;DHT22;1320;48.128;11.592;2023-07-22T05:12:48;18.10;99.90
2621;DHT22;1320;48.128;11.592;2023-07-22T05:15:13;18.10;99.90
2621;DHT22;1320;48.128;11.592;2023-07-22T05:17:39;18.20;99.90
2621;DHT22;1320;48.128;11.592;2023-07-22T05:20:06;18.30;99.90
2621;DHT22;1320;48.128;11.592;2023-07-22T05:22:35;18.40;99.90
2621;DHT22;1320;48.128;11.592;2023-07-22T05:25:00;18.40;99.90
2621;DHT22;1320;48.128;11.592;2023-07-22T05:27:26;18.40;99.90
2621;DHT22;1320;48.128;11.592;2023-07-22T05:29:52;18.50;99.90
2621;DHT22;1320;48.128;11.592;2023-07-22T05:32:17;18.50;99.90
2621;DHT22;1320;48.128;11.592;2023-07-22T05:34:43;18.50;99.90
2621;DHT22;1320;48.128;11.592;2023-07-22T05:37:09;18.50;99.90
2621;DHT22;1320;48.128;11.592;2023-07-22T05:39:34;18.60;99.90
2621;DHT22;1320;48.128;11.592;2023-07-22T05:42:00;18.70;99.90
2621;DHT22;1320;48.128;11.592;2023-07-22T05:44:26;18.80;99.90
2621;DHT22;1320;48.128;11.592;2023-07-22T05:46:51;18.80;99.90
2621;DHT22;1320;48.128;11.592;2023-07-22T05:49:21;18.90;99.90
2621;DHT22;1320;48.128;11.592;2023-07-22T05:51:46;18.90;99.90
2621;DHT22;1320;48.128;11.592;2023-07-22T05:54:12;19.00;99.90
2621;DHT22;1320;48.128;11.592;2023-07-22T05:56:38;19.00;99.90
2621;DHT22;1320;48.128;11.592;2023-07-22T05:59:03;19.00;99.90
2621;DHT22;1320;48.128;11.592;2023-07-22T06:01:30;19.10;99.90
2621;DHT22;1320;48.128;11.592;2023-07-22T06:03:55;19.20;99.90
2621;DHT22;1320;48.128;11.592;2023-07-22T06:06:21;19.30;99.90
2621;DHT22;1320;48.128;11.592;2023-07-22T06:08:47;19.30;99.90
2621;DHT22;1320;48.128;11.592;2023-07-22T06:11:12;19.40;99.90
2621;DHT22;1320;48.128;11.592;2023-07-22T06:13:39;19.60;99.90
2621;DHT22;1320;48.128;11.592;2023-07-22T06:16:04;19.60;99.90
2621;DHT22;1320;48.128;11.592;2023-07-22T06:18:30;19.70;99.90
2621;DHT22;1320;48.128;11.592;2023-07-22T06:20:56;19.80;99.90
2621;DHT22;1320;48.128;11.592;2023-07-22T06:23:22;19.80;99.90
2621;DHT22;1320;48.128;11.592;2023-07-22T06:25:47;19.80;99.90
2621;DHT22;1320;48.128;11.592;2023-07-22T06:28:15;19.70;99.90
2621;DHT22;1320;48.128;11.592;2023-07-22T06:30:41;19.80;99.90
2621;DHT22;1320;48.128;11.592;2023-07-22T06:33:07;19.80;99.90
2621;DHT22;1320;48.128;11.592;2023-07-22T06:35:32;19.90;99.90
2621;DHT22;1320;48.128;11.592;2023-07-22T06:37:58;19.90;99.90
2621;DHT22;1320;48.128;11.592;2023-07-22T06:40:24;20.00;99.90
2621;DHT22;1320;48.128;11.592;2023-07-22T06:42:50;20.10;99.90
2621;DHT22;1320;48.128;11.592;2023-07-22T06:45:16;20.10;99.90
2621;DHT22;1320;48.128;11.592;2023-07-22T06:47:41;20.20;99.90
2621;DHT22;1320;48.128;11.592;2023-07-22T06:50:07;20.20;99.90
2621;DHT22;1320;48.128;11.592;2023-07-22T06:52:33;20.30;99.90
2621;DHT22;1320;48.128;11.592;2023-07-22T06:54:59;20.40;99.90
2621;DHT22;1320;48.128;11.592;2023-07-22T06:57:25;20.40;99.90
2621;DHT22;1320;48.128;11.592;2023-07-22T06:59:54;20.50;99.90
2621;DHT22;1320;48.128;11.592;2023-07-22T07:02:20;20.50;99.90
2621;DHT22;1320;48.128;11.592;2023-07-22T07:04:46;20.60;99.90
2621;DHT22;1320;48.128;11.592;2023-07-22T07:07:13;20.60;99.90
2621;DHT22;1320;48.128;11.592;2023-07-22T07:09:38;20.60;99.90
2621;DHT22;1320;48.128;11.592;2023-07-22T07:12:05;20.60;99.90
2621;DHT22;1320;48.128;11.592;2023-07-22T07:14:32;20.60;99.90
2621;DHT22;1320;48.128;11.592;2023-07-22T07:16:58;20.60;99.90
2621;DHT22;1320;48.128;11.592;2023-07-22T07:19:24;20.60;99.90
2621;DHT22;1320;48.128;11.592;2023-07-22T07:21:49;20.60;99.90
2621;DHT22;1320;48.128;11.592;2023-07-22T07:24:15;20.70;99.90
2621;DHT22;1320;48.128;11.592;2023-07-22T07:26:41;20.80;99.90
2621;DHT22;1320;48.128;11.592;2023-07-22T07:29:07;20.80;99.90
2621;DHT22;1320;48.128;11.592;2023-07-22T07:31:33;20.90;99.90
2621;DHT22;1320;48.128;11.592;2023-07-22T07:33:58;21.00;99.90
2621;DHT22;1320;48.128;11.592;2023-07-22T07:36:24;21.00;99.90
2621;DHT22;1320;48.128;11.592;2023-07-22T07:38:50;21.10;99.90
2621;DHT22;1320;48.128;11.592;2023-07-22T07:41:15;21.20;99.90
2621;DHT22;1320;48.128;11.592;2023-07-22T07:43:41;21.30;99.90
2621;DHT22;1320;48.128;11.592;2023-07-22T07:48:50;21.50;99.90
2621;DHT22;1320;48.128;11.592;2023-07-22T07:51:17;21.50;99.90
2621;DHT22;1320;48.128;11.592;2023-07-22T07:53:44;21.50;99.90
2621;DHT22;1320;48.128;11.592;2023-07-22T07:56:11;21.50;99.90
2621;DHT22;1320;48.128;11.592;2023-07-22T07:58:38;21.40;99.90
2621;DHT22;1320;48.128;11.592;2023-07-22T08:01:04;21.50;99.90
2621;DHT22;1320;48.128;11.592;2023-07-22T08:03:32;21.50;99.90
2621;DHT22;1320;48.128;11.592;2023-07-22T08:05:57;21.60;99.90
2621;DHT22;1320;48.128;11.592;2023-07-22T08:08:23;21.70;99.90
2621;DHT22;1320;48.128;11.592;2023-07-22T08:11:00;21.90;99.90
2621;DHT22;1320;48.128;11.592;2023-07-22T08:13:26;22.00;98.30
2621;DHT22;1320;48.128;11.592;2023-07-22T08:15:53;22.10;98.50
2621;DHT22;1320;48.128;11.592;2023-07-22T08:18:19;22.20;98.30
2621;DHT22;1320;48.128;11.592;2023-07-22T08:20:44;22.30;98.30
2621;DHT22;1320;48.128;11.592;2023-07-22T08:23:13;22.50;98.20
2621;DHT22;1320;48.128;11.592;2023-07-22T08:25:38;22.90;99.50
2621;DHT22;1320;48.128;11.592;2023-07-22T08:28:04;23.50;96.70
2621;DHT22;1320;48.128;11.592;2023-07-22T08:30:29;24.10;95.60
2621;DHT22;1320;48.128;11.592;2023-07-22T08:32:55;24.70;94.30
2621;DHT22;1320;48.128;11.592;2023-07-22T08:35:21;25.20;94.40
2621;DHT22;1320;48.128;11.592;2023-07-22T08:37:47;25.60;93.80
2621;DHT22;1320;48.128;11.592;2023-07-22T08:40:14;26.10;91.40
2621;DHT22;1320;48.128;11.592;2023-07-22T08:42:41;26.50;91.40
2621;DHT22;1320;48.128;11.592;2023-07-22T08:45:09;26.70;88.40
2621;DHT22;1320;48.128;11.592;2023-07-22T08:47:38;26.80;85.80
2621;DHT22;1320;48.128;11.592;2023-07-22T08:50:06;26.80;86.40
2621;DHT22;1320;48.128;11.592;2023-07-22T08:52:33;26.90;86.20
2621;DHT22;1320;48.128;11.592;2023-07-22T08:55:00;27.00;86.30
2621;DHT22;1320;48.128;11.592;2023-07-22T08:57:27;27.10;85.00
2621;DHT22;1320;48.128;11.592;2023-07-22T08:59:56;27.20;83.70
2621;DHT22;1320;48.128;11.592;2023-07-22T09:02:24;27.10;85.90
2621;DHT22;1320;48.128;11.592;2023-07-22T09:04:50;27.30;85.90
2621;DHT22;1320;48.128;11.592;2023-07-22T09:07:16;27.70;84.50
2621;DHT22;1320;48.128;11.592;2023-07-22T09:09:44;27.80;84.10
2621;DHT22;1320;48.128;11.592;2023-07-22T09:12:12;28.10;81.70
2621;DHT22;1320;48.128;11.592;2023-07-22T09:14:38;28.20;81.50
2621;DHT22;1320;48.128;11.592;2023-07-22T09:17:05;28.20;81.60
2621;DHT22;1320;48.128;11.592;2023-07-22T09:19:31;28.30;77.60
2621;DHT22;1320;48.128;11.592;2023-07-22T09:21:57;28.30;76.30
2621;DHT22;1320;48.128;11.592;2023-07-22T09:24:25;28.20;75.50
2621;DHT22;1320;48.128;11.592;2023-07-22T09:26:51;28.10;76.10
2621;DHT22;1320;48.128;11.592;2023-07-22T09:29:17;28.10;77.00
2621;DHT22;1320;48.128;11.592;2023-07-22T09:31:51;28.00;75.90
2621;DHT22;1320;48.128;11.592;2023-07-22T09:34:18;28.10;77.60
2621;DHT22;1320;48.128;11.592;2023-07-22T09:36:54;28.50;76.00
2621;DHT22;1320;48.128;11.592;2023-07-22T09:39:21;28.70;76.00
2621;DHT22;1320;48.128;11.592;2023-07-22T09:41:47;28.80;78.50
2621;DHT22;1320;48.128;11.592;2023-07-22T09:44:13;28.90;75.90
2621;DHT22;1320;48.128;11.592;2023-07-22T09:46:39;29.10;75.80
2621;DHT22;1320;48.128;11.592;2023-07-22T09:49:06;29.20;76.40
2621;DHT22;1320;48.128;11.592;2023-07-22T09:51:38;29.50;75.60
2621;DHT22;1320;48.128;11.592;2023-07-22T09:54:04;29.90;73.70
2621;DHT22;1320;48.128;11.592;2023-07-22T09:56:31;29.90;73.80
2621;DHT22;1320;48.128;11.592;2023-07-22T09:59:04;29.90;72.10
2621;DHT22;1320;48.128;11.592;2023-07-22T10:01:31;29.90;72.50
2621;DHT22;1320;48.128;11.592;2023-07-22T10:03:58;29.90;71.50
2621;DHT22;1320;48.128;11.592;2023-07-22T10:06:28;30.20;70.70
2621;DHT22;1320;48.128;11.592;2023-07-22T10:09:03;30.40;68.20
2621;DHT22;1320;48.128;11.592;2023-07-22T10:11:34;30.40;68.40
2621;DHT22;1320;48.128;11.592;2023-07-22T10:14:02;30.30;68.40
2621;DHT22;1320;48.128;11.592;2023-07-22T10:16:28;30.00;69.80
2621;DHT22;1320;48.128;11.592;2023-07-22T10:18:54;29.70;67.20
2621;DHT22;1320;48.128;11.592;2023-07-22T10:21:21;29.40;69.20
2621;DHT22;1320;48.128;11.592;2023-07-22T10:23:47;29.40;67.80
2621;DHT22;1320;48.128;11.592;2023-07-22T10:26:19;29.30;68.70
2621;DHT22;1320;48.128;11.592;2023-07-22T10:32:07;29.10;69.30
2621;DHT22;1320;48.128;11.592;2023-07-22T10:34:33;29.10;69.20
2621;DHT22;1320;48.128;11.592;2023-07-22T10:36:59;29.10;68.90
2621;DHT22;1320;48.128;11.592;2023-07-22T10:43:14;28.90;70.10
2621;DHT22;1320;48.128;11.592;2023-07-22T10:49:14;29.00;70.10
2621;DHT22;1320;48.128;11.592;2023-07-22T10:51:41;28.90;68.80
2621;DHT22;1320;48.128;11.592;2023-07-22T10:54:14;28.90;67.40
2621;DHT22;1320;48.128;11.592;2023-07-22T10:56:44;28.60;67.60
2621;DHT22;1320;48.128;11.592;2023-07-22T10:59:11;28.10;68.30
2621;DHT22;1320;48.128;11.592;2023-07-22T11:01:43;27.70;69.20
2621;DHT22;1320;48.128;11.592;2023-07-22T11:12:14;27.00;71.50
2621;DHT22;1320;48.128;11.592;2023-07-22T11:14:54;27.00;72.20
2621;DHT22;1320;48.128;11.592;2023-07-22T11:17:31;27.20;73.00
2621;DHT22;1320;48.128;11.592;2023-07-22T11:19:58;27.50;71.50
2621;DHT22;1320;48.128;11.592;2023-07-22T11:22:24;27.80;71.60
2621;DHT22;1320;48.128;11.592;2023-07-22T11:24:50;27.90;71.30
2621;DHT22;1320;48.128;11.592;2023-07-22T11:27:15;28.00;71.80
2621;DHT22;1320;48.128;11.592;2023-07-22T11:29:41;28.20;70.80
2621;DHT22;1320;48.128;11.592;2023-07-22T11:32:14;28.40;69.40
2621;DHT22;1320;48.128;11.592;2023-07-22T11:34:42;28.70;69.00
2621;DHT22;1320;48.128;11.592;2023-07-22T11:37:10;28.80;68.50
2621;DHT22;1320;48.128;11.592;2023-07-22T11:39:36;29.00;69.80
2621;DHT22;1320;48.128;11.592;2023-07-22T11:42:04;29.10;68.10
2621;DHT22;1320;48.128;11.592;2023-07-22T11:44:30;29.20;68.30
2621;DHT22;1320;48.128;11.592;2023-07-22T11:47:06;29.20;69.10
2621;DHT22;1320;48.128;11.592;2023-07-22T11:49:38;29.30;68.50
2621;DHT22;1320;48.128;11.592;2023-07-22T11:52:24;29.50;67.90
2621;DHT22;1320;48.128;11.592;2023-07-22T11:54:49;29.50;65.80
2621;DHT22;1320;48.128;11.592;2023-07-22T11:57:23;29.40;65.50
2621;DHT22;1320;48.128;11.592;2023-07-22T11:59:50;29.20;66.90
2621;DHT22;1320;48.128;11.592;2023-07-22T12:02:21;29.20;65.90
2621;DHT22;1320;48.128;11.592;2023-07-22T12:07:31;29.10;65.60
2621;DHT22;1320;48.128;11.592;2023-07-22T12:09:59;29.20;65.90
2621;DHT22;1320;48.128;11.592;2023-07-22T12:15:21;29.50;65.90
2621;DHT22;1320;48.128;11.592;2023-07-22T12:20:31;29.50;65.10
2621;DHT22;1320;48.128;11.592;2023-07-22T12:22:57;29.50;64.50
2621;DHT22;1320;48.128;11.592;2023-07-22T12:25:23;29.50;65.50
2621;DHT22;1320;48.128;11.592;2023-07-22T12:27:49;29.50;64.50
2621;DHT22;1320;48.128;11.592;2023-07-22T12:30:18;29.50;65.90
2621;DHT22;1320;48.128;11.592;2023-07-22T12:32:45;29.50;64.90
2621;DHT22;1320;48.128;11.592;2023-07-22T12:35:10;29.70;65.30
2621;DHT22;1320;48.128;11.592;2023-07-22T12:37:39;30.00;65.20
2621;DHT22;1320;48.128;11.592;2023-07-22T12:40:05;30.20;65.80
2621;DHT22;1320;48.128;11.592;2023-07-22T12:42:36;30.30;63.50
2621;DHT22;1320;48.128;11.592;2023-07-22T12:45:03;30.50;64.00
2621;DHT22;1320;48.128;11.592;2023-07-22T12:47:29;30.60;65.10
2621;DHT22;1320;48.128;11.592;2023-07-22T12:49:54;30.60;62.70
2621;DHT22;1320;48.128;11.592;2023-07-22T12:52:20;30.50;62.80
2621;DHT22;1320;48.128;11.592;2023-07-22T12:54:46;30.40;62.20
2621;DHT22;1320;48.128;11.592;2023-07-22T12:57:11;30.40;62.50
2621;DHT22;1320;48.128;11.592;2023-07-22T12:59:37;30.50;61.60
2621;DHT22;1320;48.128;11.592;2023-07-22T13:02:03;30.50;61.10
2621;DHT22;1320;48.128;11.592;2023-07-22T13:04:28;30.60;62.40
2621;DHT22;1320;48.128;11.592;2023-07-22T13:06:54;30.80;60.00
2621;DHT22;1320;48.128;11.592;2023-07-22T13:12:42;30.60;60.30
2621;DHT22;1320;48.128;11.592;2023-07-22T13:15:08;30.40;62.00
2621;DHT22;1320;48.128;11.592;2023-07-22T13:17:34;30.20;62.90
2621;DHT22;1320;48.128;11.592;2023-07-22T13:20:00;30.10;62.50
2621;DHT22;1320;48.128;11.592;2023-07-22T13:22:25;30.20;61.70
2621;DHT22;1320;48.128;11.592;2023-07-22T13:24:51;30.30;64.40
2621;DHT22;1320;48.128;11.592;2023-07-22T13:27:17;30.30;60.30
2621;DHT22;1320;48.128;11.592;2023-07-22T13:29:42;30.20;61.90
2621;DHT22;1320;48.128;11.592;2023-07-22T13:32:08;30.20;62.80
2621;DHT22;1320;48.128;11.592;2023-07-22T13:34:34;30.40;61.60
2621;DHT22;1320;48.128;11.592;2023-07-22T13:36:59;30.60;62.80
2621;DHT22;1320;48.128;11.592;2023-07-22T13:39:28;30.80;63.00
2621;DHT22;1320;48.128;11.592;2023-07-22T13:44:19;31.60;59.70
2621;DHT22;1320;48.128;11.592;2023-07-22T13:46:45;31.90;61.90
2621;DHT22;1320;48.128;11.592;2023-07-22T13:49:11;32.10;60.00
2621;DHT22;1320;48.128;11.592;2023-07-22T13:51:36;32.30;58.40
2621;DHT22;1320;48.128;11.592;2023-07-22T13:54:02;32.30;59.20
2621;DHT22;1320;48.128;11.592;2023-07-22T13:56:28;32.30;57.90
2621;DHT22;1320;48.128;11.592;2023-07-22T13:58:54;32.40;58.20
2621;DHT22;1320;48.128;11.592;2023-07-22T14:01:20;32.30;57.50
2621;DHT22;1320;48.128;11.592;2023-07-22T14:03:46;32.30;56.90
2621;DHT22;1320;48.128;11.592;2023-07-22T14:06:11;32.20;57.80
2621;DHT22;1320;48.128;11.592;2023-07-22T14:08:37;32.00;56.30
2621;DHT22;1320;48.128;11.592;2023-07-22T14:11:04;31.70;56.10
2621;DHT22;1320;48.128;11.592;2023-07-22T14:13:29;31.40;55.70
2621;DHT22;1320;48.128;11.592;2023-07-22T14:15:55;31.20;55.90
2621;DHT22;1320;48.128;11.592;2023-07-22T14:18:21;31.20;57.90
2621;DHT22;1320;48.128;11.592;2023-07-22T14:20:46;31.30;57.40
2621;DHT22;1320;48.128;11.592;2023-07-22T14:23:12;31.30;57.70
2621;DHT22;1320;48.128;11.592;2023-07-22T14:25:38;31.20;57.10
2621;DHT22;1320;48.128;11.592;2023-07-22T14:28:04;31.20;58.20
2621;DHT22;1320;48.128;11.592;2023-07-22T14:30:30;31.40;56.60
2621;DHT22;1320;48.128;11.592;2023-07-22T14:32:55;31.40;55.50
2621;DHT22;1320;48.128;11.592;2023-07-22T14:35:21;31.30;56.40
2621;DHT22;1320;48.128;11.592;2023-07-22T14:37:47;31.20;56.00
2621;DHT22;1320;48.128;11.592;2023-07-22T14:40:13;31.20;55.60
2621;DHT22;1320;48.128;11.592;2023-07-22T14:42:39;31.20;55.70
2621;DHT22;1320;48.128;11.592;2023-07-22T14:45:06;31.20;57.00
2621;DHT22;1320;48.128;11.592;2023-07-22T14:47:32;31.20;55.80
2621;DHT22;1320;48.128;11.592;2023-07-22T14:49:58;31.40;57.00
2621;DHT22;1320;48.128;11.592;2023-07-22T14:52:23;31.70;56.10
2621;DHT22;1320;48.128;11.592;2023-07-22T14:54:49;31.80;55.00
2621;DHT22;1320;48.128;11.592;2023-07-22T14:57:16;31.70;54.00
2621;DHT22;1320;48.128;11.592;2023-07-22T14:59:42;31.50;54.70
2621;DHT22;1320;48.128;11.592;2023-07-22T15:02:08;31.40;54.50
2621;DHT22;1320;48.128;11.592;2023-07-22T15:04:34;31.50;56.20
2621;DHT22;1320;48.128;11.592;2023-07-22T15:07:00;31.80;55.30
2621;DHT22;1320;48.128;11.592;2023-07-22T15:09:25;32.10;55.30
2621;DHT22;1320;48.128;11.592;2023-07-22T15:11:51;32.40;54.30
2621;DHT22;1320;48.128;11.592;2023-07-22T15:14:18;32.40;54.90
2621;DHT22;1320;48.128;11.592;2023-07-22T15:16:44;32.30;55.00
2621;DHT22;1320;48.128;11.592;2023-07-22T15:19:09;32.30;53.70
2621;DHT22;1320;48.128;11.592;2023-07-22T15:21:35;32.10;54.70
2621;DHT22;1320;48.128;11.592;2023-07-22T15:24:01;32.00;56.00
2621;DHT22;1320;48.128;11.592;2023-07-22T15:26:26;31.80;55.70
2621;DHT22;1320;48.128;11.592;2023-07-22T15:28:53;31.80;54.00
2621;DHT22;1320;48.128;11.592;2023-07-22T15:31:20;31.60;55.20
2621;DHT22;1320;48.128;11.592;2023-07-22T15:33:46;31.40;54.90
2621;DHT22;1320;48.128;11.592;2023-07-22T15:36:13;31.40;55.70
2621;DHT22;1320;48.128;11.592;2023-07-22T15:38:38;31.60;54.90
2621;DHT22;1320;48.128;11.592;2023-07-22T15:41:04;31.80;55.00
2621;DHT22;1320;48.128;11.592;2023-07-22T15:43:30;32.20;55.20
2621;DHT22;1320;48.128;11.592;2023-07-22T15:45:55;32.50;55.20
2621;DHT22;1320;48.128;11.592;2023-07-22T15:48:21;32.80;55.10
2621;DHT22;1320;48.128;11.592;2023-07-22T15:50:47;33.10;54.40
2621;DHT22;1320;48.128;11.592;2023-07-22T15:53:14;33.40;52.60
2621;DHT22;1320;48.128;11.592;2023-07-22T15:55:40;33.60;52.60
2621;DHT22;1320;48.128;11.592;2023-07-22T15:58:06;33.70;52.40
2621;DHT22;1320;48.128;11.592;2023-07-22T16:00:31;33.90;52.50
2621;DHT22;1320;48.128;11.592;2023-07-22T16:02:57;34.00;52.60
2621;DHT22;1320;48.128;11.592;2023-07-22T16:05:23;34.30;52.50
2621;DHT22;1320;48.128;11.592;2023-07-22T16:07:50;34.60;52.80
2621;DHT22;1320;48.128;11.592;2023-07-22T16:10:16;34.80;52.70
2621;DHT22;1320;48.128;11.592;2023-07-22T16:12:41;35.00;52.00
2621;DHT22;1320;48.128;11.592;2023-07-22T16:15:08;35.20;52.10